Main page
METAR-TAF:

METAR-TAF

Airports :

Pacific Missile Range Facility

Kekaha, Hawaii, United States

latitude: 22-02-11N, longitude: 159-47-11W, elevation: 4 m

Current weather observation

The report was made 31 minutes ago, at 15:51 UTC
Wind 4 kt from the East
Temperature 23°C
Humidity 73%
Pressure 1018 hPa
Visibility: 16.1 km
Clear sky

METAR: PHBK 211551Z AUTO 08004KT 10SM CLR 23/18 A3005 RMK AO2 SLP177 T02280183

Time: 06:22 (16:22 UTC)


TAF: missing

Weather observations and forecasts of more than 4000 airports (METAR and TAF reports).

The available stations are represented by yellow and red dots on the map.

Hover mouse over dot to see the name of the station.

Then click to see weather observations and forecasts.

To change the map : click on the green buttons with a black cross to zoom in, on the green button with a dash to zoom out, or on the green arrows for adjacent maps.


METAR-TAF: